Sonny — WDG5366 — position and weather

sailwx.info

Track history (hours):
 
Tides and Currents Weather Stations Pressure Air Temp Water Temp Dewpoint Dewpoint Depression Visibility Wind Speed Wind Dir Waves Ship Positions

Sonny

Owner: Biscayne Towing & Salvage, Inc., Miami, FL. More information available from US FCC via Universal Licensing System and Coast Guard Vessel Documentation Center.

Last reported at 2017-Dec-17 05:58 UTC. Time now 2017-Dec-17 09:56 UTC.
Position N 25°47' W 080°12'.

; draft 2.5 m.

Type: Towing. MMSI: 366931000.

Date/timePositionNaut miles runAvg speedWind from/ knotsBaromVisibWave heightAir tempDewpointWater temp
2017-Dec-17 05:58N 25°47' W 080°12'1 1.9
2017-Dec-17 05:30N 25°46' W 080°11'3 5.7
2017-Dec-17 04:58N 25°46' W 080°08'3 5.7
2017-Dec-17 04:30N 25°48' W 080°06'4 8.7
2017-Dec-17 04:00N 25°52' W 080°06'4 8.8
2017-Dec-17 03:30N 25°57' W 080°06'4 8.6
2017-Dec-17 03:00N 26°01' W 080°06'4 8.4
2017-Dec-17 02:30N 26°05' W 080°06'1 1.4
2017-Dec-17 02:00N 26°06' W 080°06'1 1.7
2017-Dec-17 01:30N 26°06' W 080°06'0 0.3
2017-Dec-17 00:59N 26°06' W 080°05'1 1.5
2017-Dec-17 00:30N 26°07' W 080°05'0 0.6
2017-Dec-16 23:59N 26°06' W 080°05'1 2.0
2017-Dec-16 23:31N 26°07' W 080°05'2 4.5
2017-Dec-16 23:01N 26°10' W 080°05'2 4.5
2017-Dec-16 22:30N 26°12' W 080°04'2 4.6
2017-Dec-16 21:59N 26°14' W 080°04'2 4.4
2017-Dec-16 21:30N 26°16' W 080°04'2 4.3
2017-Dec-16 21:00N 26°18' W 080°04'2 4.3
2017-Dec-16 20:29N 26°21' W 080°04'2 4.2
2017-Dec-16 20:00N 26°23' W 080°03'2 4.4
2017-Dec-16 19:30N 26°25' W 080°03'2 4.6
2017-Dec-16 18:59N 26°27' W 080°02'3 4.2
2017-Dec-16 18:20N 26°30' W 080°02'5 3.6
2017-Dec-16 16:51N 26°35' W 080°01'1 3.5
2017-Dec-16 16:30N 26°36' W 080°01'2 3.0
2017-Dec-16 16:00N 26°38' W 080°01'2 3.8
2017-Dec-16 15:30N 26°40' W 080°01'2 4.2
2017-Dec-16 15:01N 26°42' W 080°01'2 4.4
2017-Dec-16 14:30N 26°44' W 080°01'2 4.0
2017-Dec-16 14:00N 26°46' W 080°01'1 2.1
2017-Dec-16 13:24N 26°46' W 080°03'0 1.1
2017-Dec-16 13:00N 26°46' W 080°03'1 1.5
2017-Dec-16 12:29N 26°45' W 080°03'0 0.1
2017-Dec-16 12:00N 26°45' W 080°03'2 3.4
2017-Dec-16 11:30N 26°46' W 080°02'1 1.6
2017-Dec-16 11:00N 26°46' W 080°01'0 0.4
2017-Dec-16 10:30N 26°46' W 080°01'0 0.9
2017-Dec-16 10:00N 26°46' W 080°01'2 3.5
2017-Dec-16 09:30N 26°44' W 080°01'2 4.6
2017-Dec-16 09:00N 26°42' W 080°00'2 5.0
2017-Dec-16 08:30N 26°39' W 080°00'3 5.2
2017-Dec-16 08:00N 26°37' W 080°01'13 7.7
2017-Dec-16 06:17N 26°23' W 080°02'2 8.6
2017-Dec-16 06:01N 26°21' W 080°02'6 8.3
2017-Dec-16 05:17N 26°15' W 080°03'2 8.3
2017-Dec-16 05:00N 26°13' W 080°03'4 8.2
2017-Dec-16 04:30N 26°09' W 080°04'4 7.9
2017-Dec-16 03:57N 26°04' W 080°04'4 8.0
2017-Dec-16 03:30N 26°01' W 080°04'4 8.1
2017-Dec-16 03:00N 25°57' W 080°05'4 8.0
2017-Dec-16 02:31N 25°53' W 080°05'4 8.0
2017-Dec-16 02:00N 25°49' W 080°05'  
Track history (hours):
 
Tides and Currents Weather Stations Pressure Air Temp Water Temp Dewpoint Dewpoint Depression Visibility Wind Speed Wind Dir Waves Ship Positions

Sonny

Owner: Biscayne Towing & Salvage, Inc., Miami, FL. More information available from US FCC via Universal Licensing System and Coast Guard Vessel Documentation Center.

Last reported at 2017-Dec-17 05:58 UTC. Time now 2017-Dec-17 09:56 UTC.
Position N 25°47' W 080°12'.

; draft 2.5 m.

Type: Towing. MMSI: 366931000.

Date/timePositionNaut miles runAvg speedWind from/ knotsBaromVisibWave heightAir tempDewpointWater temp
2017-Dec-17 05:58N 25°47' W 080°12'1 1.9
2017-Dec-17 05:30N 25°46' W 080°11'3 5.7
2017-Dec-17 04:58N 25°46' W 080°08'3 5.7
2017-Dec-17 04:30N 25°48' W 080°06'4 8.7
2017-Dec-17 04:00N 25°52' W 080°06'4 8.8
2017-Dec-17 03:30N 25°57' W 080°06'4 8.6
2017-Dec-17 03:00N 26°01' W 080°06'4 8.4
2017-Dec-17 02:30N 26°05' W 080°06'1 1.4
2017-Dec-17 02:00N 26°06' W 080°06'1 1.7
2017-Dec-17 01:30N 26°06' W 080°06'0 0.3
2017-Dec-17 00:59N 26°06' W 080°05'1 1.5
2017-Dec-17 00:30N 26°07' W 080°05'0 0.6
2017-Dec-16 23:59N 26°06' W 080°05'1 2.0
2017-Dec-16 23:31N 26°07' W 080°05'2 4.5
2017-Dec-16 23:01N 26°10' W 080°05'2 4.5
2017-Dec-16 22:30N 26°12' W 080°04'2 4.6
2017-Dec-16 21:59N 26°14' W 080°04'2 4.4
2017-Dec-16 21:30N 26°16' W 080°04'2 4.3
2017-Dec-16 21:00N 26°18' W 080°04'2 4.3
2017-Dec-16 20:29N 26°21' W 080°04'2 4.2
2017-Dec-16 20:00N 26°23' W 080°03'2 4.4
2017-Dec-16 19:30N 26°25' W 080°03'2 4.6
2017-Dec-16 18:59N 26°27' W 080°02'3 4.2
2017-Dec-16 18:20N 26°30' W 080°02'5 3.6
2017-Dec-16 16:51N 26°35' W 080°01'1 3.5
2017-Dec-16 16:30N 26°36' W 080°01'2 3.0
2017-Dec-16 16:00N 26°38' W 080°01'2 3.8
2017-Dec-16 15:30N 26°40' W 080°01'2 4.2
2017-Dec-16 15:01N 26°42' W 080°01'2 4.4
2017-Dec-16 14:30N 26°44' W 080°01'2 4.0
2017-Dec-16 14:00N 26°46' W 080°01'1 2.1
2017-Dec-16 13:24N 26°46' W 080°03'0 1.1
2017-Dec-16 13:00N 26°46' W 080°03'1 1.5
2017-Dec-16 12:29N 26°45' W 080°03'0 0.1
2017-Dec-16 12:00N 26°45' W 080°03'2 3.4
2017-Dec-16 11:30N 26°46' W 080°02'1 1.6
2017-Dec-16 11:00N 26°46' W 080°01'0 0.4
2017-Dec-16 10:30N 26°46' W 080°01'0 0.9
2017-Dec-16 10:00N 26°46' W 080°01'2 3.5
2017-Dec-16 09:30N 26°44' W 080°01'2 4.6
2017-Dec-16 09:00N 26°42' W 080°00'2 5.0
2017-Dec-16 08:30N 26°39' W 080°00'3 5.2
2017-Dec-16 08:00N 26°37' W 080°01'13 7.7
2017-Dec-16 06:17N 26°23' W 080°02'2 8.6
2017-Dec-16 06:01N 26°21' W 080°02'6 8.3
2017-Dec-16 05:17N 26°15' W 080°03'2 8.3
2017-Dec-16 05:00N 26°13' W 080°03'4 8.2
2017-Dec-16 04:30N 26°09' W 080°04'4 7.9
2017-Dec-16 03:57N 26°04' W 080°04'4 8.0
2017-Dec-16 03:30N 26°01' W 080°04'4 8.1
2017-Dec-16 03:00N 25°57' W 080°05'4 8.0
2017-Dec-16 02:31N 25°53' W 080°05'4 8.0
2017-Dec-16 02:00N 25°49' W 080°05'  

Dump ship's entire track history